Airfield :
LOGIN :

Register | Disclaimer

   EN    FR    IT 

 










Legend :    VFR   Marginal VFR   IFR   Intensive IFR   Very Intensive IFR
Visi :
Ceiling :
>= 8 km
>= 3000ft
5 to 8 km
1000 to 3000 ft
1500m to 5 km
500 to 1000 ft
800 to 1500m
200 to 500 ft
< 800m
< 200 ft
Symbols :   Thunderstorms  Fog  Heavy snow  Heavy precipitations  Wind > 20 kt
SIGMETs :     Misc.  Thunderstorms  Icing  Turbulence  Mountain Waves  Volcanic Ashes






- Airport Elevation : 122 ft
- IATA code : TXL


EDDT - Berlin Tegel Int.

CURRENT METAR :
  • 221550Z 24022G32KT 9999 BKN045 12/02 Q1011 TEMPO 21025G40KT

EXPIRED METARs :
  • 221520Z 25022KT 9999 BKN046 12/02 Q1011 TEMPO 21025G40KT
  • 221450Z 25022G32KT 9999 BKN047 12/01 Q1011 TEMPO 21025G40KT
  • 221420Z 25018KT CAVOK 12/01 Q1011 TEMPO 21025G40KT
  • 221350Z 24022KT CAVOK 12/01 Q1011 TEMPO 21025G35KT
  • 221320Z 24020KT 9999 BKN048 12/00 Q1011 TEMPO 21025G35KT
  • 221250Z 24017KT 210V270 9999 BKN048 11/M00 Q1011 TEMPO 21025G35KT

TAF TAF EDDT
Valid from the 22 at 12:00 until the 23 at 12:00 UTC


221100Z 2212/2312 25020G35KT 9999 SCT040
TEMPO 2214/2218 24025G40KT
BECMG 2221/2223 25015G25KT



MET'MAP, your aeronautical weather chart ! - Copyright ORBIFLY December 2007 - Disclaimer

ORBIFLY MET'MAP TEAM :

Programming & Development : Alexandra Zaïnal
Concept & original design : Baudouin d'Aumeries
Assistance for programming : Marc-Olivier Méhu
Technical & hardware support : Manuel Goepfert

Contact : metmap@orbifly.com




SOURCES & CREDITS :

   NOAA